Řízení letového provozu České republiky  
Aktualizace dat:  10.08.2022 18:00:36 UTC English version
   METEO Zobrazení stránky:  10.08.2022 18:01:20 UTC  
vysvětlivky
METAR EDDB 101750Z AUTO 05003KT 010V080 CAVOK 27/06 Q1024 NOSIG=
METAR EDDC 101750Z AUTO 07005KT 030V110 CAVOK 26/07 Q1024 NOSIG=
METAR COR EDDE 101750Z AUTO 06007KT 030V090 CAVOK 25/07 Q1024 NOSIG=
METAR EDDF 101750Z 09009KT 060V130 CAVOK 30/05 Q1021 NOSIG=
METAR EDDM 101750Z AUTO 06007KT 030V090 CAVOK 24/07 Q1022 NOSIG=
METAR EDDN 101750Z AUTO 09009KT CAVOK 26/06 Q1023 BECMG 07005KT=
METAR EDDP 101750Z 03005KT CAVOK 26/11 Q1024 NOSIG=
METAR EDQM 101750Z 09005KT CAVOK 22/06 Q1025=
METAR EPBY 101730Z 06006KT CAVOK 22/09 Q1025=
METAR EPGD 101730Z 04007KT 010V070 CAVOK 18/14 Q1027=
METAR EPKK 101730Z 01008KT CAVOK 23/09 Q1024=
METAR EPKT 101730Z 02006KT CAVOK 21/08 Q1025=
METAR EPLL 101730Z VRB02KT CAVOK 22/10 Q1025=
METAR EPPO 101730Z 05008KT 010V080 CAVOK 25/09 Q1025=
METAR EPRZ 101730Z 36007KT CAVOK 22/09 Q1023=
METAR EPWA 101730Z 36005KT CAVOK 22/11 Q1025 NOSIG=
METAR EPWR 101730Z 04006KT CAVOK 24/09 Q1025=
METAR LHBP 101730Z 07006KT 030V100 CAVOK 27/08 Q1020 NOSIG=
METAR LHSM 101715Z AUTO 01008KT CAVOK 27/08 Q1020=
METAR LKBC NIL
METAR LKCS 101800Z AUTO VRB02KT CAVOK 22/08 Q1024=
METAR LKCV 101800Z 06005KT CAVOK 24/10 Q1024 NOSIG RMK BLU BLU=
METAR LKKB 101800Z 07005KT CAVOK 23/09 Q1024 NOSIG RMK BLU BLU=
METAR LKKU NIL
METAR LKKV 101800Z 09006KT 040V120 CAVOK 22/06 Q1025=
METAR LKLN 101800Z AUTO 06005KT 350V100 CAVOK 23/08 Q1024=
METAR LKMT 101800Z 02007KT CAVOK 21/10 Q1024 NOSIG=
METAR LKNA 101800Z 06007KT CAVOK 22/08 Q1025 NOSIG RMK BLU BLU=
METAR LKPD 101800Z 07006KT CAVOK 23/09 Q1024 NOSIG RMK BLU BLU=
METAR LKPJ 101800Z AUTO 05004KT 020V090 CAVOK 23/10 Q1024=
METAR LKPR 101800Z 09007KT 070V190 CAVOK 21/10 Q1024 NOSIG=
METAR LKTB 101800Z 02005KT 350V050 CAVOK 23/08 Q1023 NOSIG=
METAR LKVO NIL
METAR LOWI 101750Z 07010KT 9999 FEW070 23/12 Q1020 NOSIG=
METAR LOWL 101750Z AUTO 11005KT 9999 FEW070 24/09 Q1022 NOSIG=
METAR LOWS 101750Z 05010KT CAVOK 24/09 Q1022 NOSIG=
METAR LOWW 101750Z 02009KT CAVOK 25/09 Q1022 NOSIG=
METAR LZIB 101730Z 03012KT CAVOK 27/07 Q1021 NOSIG=
METAR LZKZ 101730Z 04013KT CAVOK 22/10 Q1022 NOSIG=
METAR LZMC NIL
METAR LZPP 101730Z 01012KT CAVOK 26/08 Q1022=
METAR LZSL NIL
METAR LZTT 101730Z 05010KT 9999 FEW066 17/08 Q1025=
METAR LZZI 101730Z 03006KT CAVOK 23/09 Q1024=